createdAt,value
2019-03-27T00:00:10.278Z,1.40
2019-03-27T00:02:39.621Z,1.90
2019-03-27T00:05:09.018Z,1.70
2019-03-27T00:07:38.357Z,1.75
2019-03-27T00:10:08.687Z,1.52
2019-03-27T00:12:38.439Z,1.30
2019-03-27T00:15:13.452Z,1.65
2019-03-27T00:20:09.223Z,1.87
2019-03-27T00:22:38.405Z,1.60
2019-03-27T00:25:08.681Z,1.82
2019-03-27T00:27:37.915Z,1.57
2019-03-27T00:30:08.299Z,1.30
2019-03-27T00:32:37.587Z,1.52
2019-03-27T00:35:08.371Z,1.35
2019-03-27T00:37:37.615Z,1.82
2019-03-27T00:40:06.837Z,1.37
2019-03-27T00:42:36.079Z,2.80
2019-03-27T00:45:07.187Z,2.25
2019-03-27T00:47:36.414Z,2.45
2019-03-27T00:50:07.496Z,1.77
2019-03-27T00:52:36.806Z,1.40
2019-03-27T00:55:09.131Z,1.75
2019-03-27T01:00:13.101Z,1.40
2019-03-27T01:02:42.444Z,1.50
2019-03-27T01:05:11.737Z,1.50
2019-03-27T01:07:40.912Z,1.57
2019-03-27T01:10:10.215Z,1.67
2019-03-27T01:12:39.383Z,1.70
2019-03-27T01:15:08.555Z,1.27
2019-03-27T01:17:37.755Z,1.67
2019-03-27T01:20:07.088Z,1.60
2019-03-27T01:22:36.428Z,1.62
2019-03-27T01:25:06.614Z,1.42
2019-03-27T01:27:35.983Z,1.60
2019-03-27T01:30:05.821Z,1.62
2019-03-27T01:32:35.114Z,1.37
2019-03-27T01:35:04.287Z,1.70
2019-03-27T01:37:33.456Z,1.40
2019-03-27T01:40:02.740Z,1.50
2019-03-27T01:42:31.986Z,1.45
2019-03-27T01:45:01.179Z,1.50
2019-03-27T01:47:30.365Z,3.15
2019-03-27T01:49:59.547Z,2.10
2019-03-27T01:52:28.794Z,2.52
2019-03-27T01:54:57.965Z,1.90
2019-03-27T01:57:27.135Z,1.67
2019-03-27T01:59:56.443Z,1.67
2019-03-27T02:02:25.641Z,1.52
2019-03-27T02:04:54.844Z,1.45
2019-03-27T02:07:24.043Z,1.57
2019-03-27T02:09:53.261Z,1.60
2019-03-27T02:12:22.513Z,1.70
2019-03-27T02:14:51.713Z,1.55
2019-03-27T02:17:20.934Z,1.50
2019-03-27T02:19:50.189Z,1.77
2019-03-27T02:22:19.368Z,1.77
2019-03-27T02:24:48.588Z,1.80
2019-03-27T02:27:17.765Z,1.87
2019-03-27T02:29:47.105Z,1.90
2019-03-27T02:32:20.396Z,1.57
2019-03-27T02:34:47.282Z,1.70
2019-03-27T02:37:16.646Z,1.80
2019-03-27T02:39:45.842Z,2.12
2019-03-27T02:42:15.017Z,1.70
2019-03-27T02:44:44.241Z,1.75
2019-03-27T02:47:13.438Z,1.67
2019-03-27T02:49:42.612Z,1.90
2019-03-27T02:52:11.901Z,1.75
2019-03-27T02:54:41.128Z,1.75
2019-03-27T02:57:10.297Z,4.42
2019-03-27T02:59:41.883Z,4.97
2019-03-27T03:02:11.191Z,1.90
2019-03-27T03:04:40.475Z,1.37
2019-03-27T03:07:09.847Z,2.22
2019-03-27T03:09:39.182Z,1.50
2019-03-27T03:12:08.337Z,2.15
2019-03-27T03:14:37.625Z,1.90
2019-03-27T03:17:06.937Z,1.72
2019-03-27T03:19:36.172Z,1.90
2019-03-27T03:22:05.525Z,2.10
2019-03-27T03:24:34.671Z,2.98
2019-03-27T03:27:03.968Z,1.92
2019-03-27T03:29:33.134Z,2.15
2019-03-27T03:32:02.411Z,1.98
2019-03-27T03:34:31.749Z,1.87
2019-03-27T03:37:01.054Z,1.90
2019-03-27T03:39:30.328Z,2.30
2019-03-27T03:41:59.518Z,2.00
2019-03-27T03:44:28.789Z,2.08
2019-03-27T03:47:00.137Z,2.05
2019-03-27T03:49:28.926Z,2.00
2019-03-27T03:51:58.192Z,2.00
2019-03-27T03:54:27.434Z,2.08
2019-03-27T03:56:57.031Z,1.90
2019-03-27T03:59:27.837Z,2.10
2019-03-27T04:01:57.003Z,2.40
2019-03-27T04:04:26.225Z,2.83
2019-03-27T04:06:55.469Z,2.70
2019-03-27T04:09:24.652Z,2.65
2019-03-27T04:11:53.951Z,2.98
2019-03-27T04:14:23.323Z,2.95
2019-03-27T04:16:53.640Z,3.40
2019-03-27T04:19:22.949Z,3.67
2019-03-27T04:21:52.277Z,4.45
2019-03-27T04:24:21.454Z,4.15
2019-03-27T04:26:50.703Z,3.87
2019-03-27T04:29:19.905Z,4.22
2019-03-27T04:31:49.238Z,4.70
2019-03-27T04:34:18.490Z,4.97
2019-03-27T04:36:47.687Z,5.33
2019-03-27T04:39:16.954Z,5.60
2019-03-27T04:41:46.159Z,5.37
2019-03-27T04:44:15.433Z,5.60
2019-03-27T04:46:44.749Z,5.45
2019-03-27T04:49:14.108Z,5.50
2019-03-27T04:51:43.495Z,5.17
2019-03-27T04:54:12.749Z,5.12
2019-03-27T04:56:41.956Z,5.33
2019-03-27T04:59:11.311Z,5.80
2019-03-27T05:01:40.550Z,5.83
2019-03-27T05:04:10.037Z,5.70
2019-03-27T05:06:39.487Z,6.53
2019-03-27T05:09:08.734Z,7.15
2019-03-27T05:11:38.048Z,6.72
2019-03-27T05:14:07.390Z,5.78
2019-03-27T05:16:36.654Z,6.30
2019-03-27T05:19:05.939Z,6.12
2019-03-27T05:21:35.296Z,6.42
2019-03-27T05:24:04.551Z,6.62
2019-03-27T05:26:33.760Z,6.97
2019-03-27T05:29:03.019Z,6.10
2019-03-27T05:31:32.462Z,5.80
2019-03-27T05:34:01.755Z,6.45
2019-03-27T05:36:31.021Z,6.28
2019-03-27T05:39:00.297Z,7.22
2019-03-27T05:41:29.701Z,7.15
2019-03-27T05:43:59.060Z,6.60
2019-03-27T05:46:29.241Z,6.80
2019-03-27T05:48:58.660Z,6.95
2019-03-27T05:51:28.373Z,5.50
2019-03-27T05:53:57.635Z,6.60
2019-03-27T05:56:28.683Z,6.12
2019-03-27T05:58:58.052Z,6.12
2019-03-27T06:01:27.449Z,5.55
2019-03-27T06:03:56.892Z,6.33
2019-03-27T06:06:26.125Z,5.37
2019-03-27T06:08:55.389Z,5.55
2019-03-27T06:11:24.671Z,5.25
2019-03-27T06:13:54.060Z,6.08
2019-03-27T06:16:23.397Z,8.25
2019-03-27T06:18:52.737Z,9.15
2019-03-27T06:21:22.072Z,5.90
2019-03-27T06:23:51.257Z,5.58
2019-03-27T06:26:21.274Z,5.72
2019-03-27T06:28:50.528Z,6.03
2019-03-27T06:31:19.856Z,6.60
2019-03-27T06:33:49.821Z,6.17
2019-03-27T06:36:19.090Z,5.97
2019-03-27T06:38:48.368Z,5.35
2019-03-27T06:41:17.794Z,5.87
2019-03-27T06:43:47.122Z,5.97
2019-03-27T06:46:16.381Z,6.78
2019-03-27T06:48:45.751Z,5.30
2019-03-27T06:51:15.152Z,5.35
2019-03-27T06:53:44.617Z,5.50
2019-03-27T06:56:14.254Z,5.10
2019-03-27T06:58:53.956Z,5.28
2019-03-27T07:01:14.830Z,5.12
2019-03-27T07:03:44.322Z,5.85
2019-03-27T07:06:13.760Z,5.58
2019-03-27T07:08:43.189Z,5.90
2019-03-27T07:11:12.623Z,5.30
2019-03-27T07:13:41.954Z,5.60
2019-03-27T07:16:11.217Z,5.42
2019-03-27T07:18:40.767Z,6.03
2019-03-27T07:21:09.928Z,5.97
2019-03-27T07:23:39.290Z,7.72
2019-03-27T07:26:09.053Z,6.28
2019-03-27T07:28:38.326Z,5.83
2019-03-27T07:31:07.655Z,6.08
2019-03-27T07:33:36.934Z,5.33
2019-03-27T07:36:06.358Z,6.30
2019-03-27T07:38:35.737Z,6.67
2019-03-27T07:41:05.075Z,5.62
2019-03-27T07:43:34.488Z,5.80
2019-03-27T07:46:03.821Z,6.30
2019-03-27T07:48:33.068Z,6.47
2019-03-27T07:51:02.477Z,5.83
2019-03-27T07:53:31.734Z,6.00
2019-03-27T07:56:00.988Z,7.90
2019-03-27T07:58:30.393Z,7.55
2019-03-27T08:00:59.722Z,5.80
2019-03-27T08:03:29.220Z,5.33
2019-03-27T08:05:58.575Z,5.62
2019-03-27T08:08:28.110Z,4.75
2019-03-27T08:10:57.375Z,10.28
2019-03-27T08:13:26.648Z,5.17
2019-03-27T08:15:56.047Z,5.28
2019-03-27T08:18:25.239Z,4.67
2019-03-27T08:20:54.609Z,4.10
2019-03-27T08:23:23.883Z,5.37
2019-03-27T08:25:53.133Z,5.20
2019-03-27T08:28:22.596Z,4.22
2019-03-27T08:30:51.993Z,4.35
2019-03-27T08:33:21.316Z,7.40
2019-03-27T08:35:50.619Z,5.72
2019-03-27T08:38:20.062Z,4.45
2019-03-27T08:40:49.308Z,3.95
2019-03-27T08:43:21.456Z,3.42
2019-03-27T08:45:49.705Z,9.05
2019-03-27T08:48:18.876Z,4.83
2019-03-27T08:50:48.258Z,4.20
2019-03-27T08:53:17.531Z,5.62
2019-03-27T08:55:46.918Z,3.70
2019-03-27T08:58:16.852Z,4.95
2019-03-27T09:00:50.222Z,3.37
2019-03-27T09:03:19.623Z,3.17
2019-03-27T09:05:49.127Z,3.30
2019-03-27T09:08:18.590Z,2.75
2019-03-27T09:10:47.975Z,9.68
2019-03-27T09:13:17.325Z,4.67
2019-03-27T09:15:47.109Z,3.35
2019-03-27T09:18:16.991Z,5.08
2019-03-27T09:20:46.493Z,3.10
2019-03-27T09:23:15.806Z,3.67
2019-03-27T09:25:45.249Z,2.95
2019-03-27T09:28:14.502Z,3.00
2019-03-27T09:30:43.758Z,3.33
2019-03-27T09:33:13.039Z,7.80
2019-03-27T09:35:42.359Z,3.35
2019-03-27T09:38:11.736Z,3.00
2019-03-27T09:40:41.065Z,2.90
2019-03-27T09:43:10.451Z,2.87
2019-03-27T09:45:39.809Z,3.17
2019-03-27T09:48:09.074Z,3.35
2019-03-27T09:50:38.393Z,2.77
2019-03-27T09:53:07.659Z,2.87
2019-03-27T09:55:36.978Z,4.25
2019-03-27T09:58:06.283Z,3.02
2019-03-27T10:00:44.621Z,3.30
2019-03-27T10:03:13.837Z,2.55
2019-03-27T10:05:43.260Z,2.90
2019-03-27T10:08:12.639Z,2.65
2019-03-27T10:10:42.074Z,4.53
2019-03-27T10:13:11.434Z,2.98
2019-03-27T10:15:40.778Z,2.50
2019-03-27T10:18:10.047Z,4.33
2019-03-27T10:20:39.292Z,2.60
2019-03-27T10:23:08.611Z,2.50
2019-03-27T10:25:37.932Z,3.55
2019-03-27T10:28:07.388Z,2.95
2019-03-27T10:30:36.685Z,2.55
2019-03-27T10:33:06.024Z,2.25
2019-03-27T10:35:35.424Z,4.55
2019-03-27T10:38:04.760Z,3.37
2019-03-27T10:40:34.156Z,3.17
2019-03-27T10:43:03.583Z,1.70
2019-03-27T10:45:33.557Z,1.70
2019-03-27T10:48:02.817Z,2.27
2019-03-27T10:50:32.087Z,1.70
2019-03-27T10:53:01.356Z,2.05
2019-03-27T10:55:34.254Z,2.17
2019-03-27T10:58:01.748Z,2.12
2019-03-27T11:00:31.080Z,1.70
2019-03-27T11:03:00.392Z,1.87
2019-03-27T11:05:29.773Z,1.82
2019-03-27T11:07:59.096Z,2.15
2019-03-27T14:01:35.675Z,1.67
2019-03-27T14:04:05.155Z,1.42
2019-03-27T14:06:34.465Z,1.10
2019-03-27T14:09:05.316Z,1.32
2019-03-27T14:11:34.499Z,1.47
2019-03-27T14:14:11.203Z,1.47
2019-03-27T14:16:34.948Z,1.55
2019-03-27T14:19:04.143Z,1.40
2019-03-27T14:21:33.637Z,1.32
2019-03-27T14:24:02.831Z,1.27
2019-03-27T14:26:44.297Z,1.60
2019-03-27T14:29:03.051Z,1.70
2019-03-27T14:31:32.227Z,1.65
2019-03-27T14:34:01.471Z,1.60
2019-03-27T14:36:30.815Z,1.80
2019-03-27T14:39:00.056Z,1.90
2019-03-27T14:41:29.239Z,2.10
2019-03-27T14:43:58.421Z,2.00
2019-03-27T14:46:28.822Z,1.72
2019-03-27T14:48:58.134Z,1.80
2019-03-27T14:51:27.405Z,1.95
2019-03-27T14:53:56.607Z,1.70
2019-03-27T14:56:26.053Z,1.98
2019-03-27T14:58:55.226Z,2.00
2019-03-27T15:01:24.479Z,1.90
2019-03-27T15:03:53.703Z,2.08
2019-03-27T15:06:24.572Z,2.20
2019-03-27T15:08:54.013Z,2.00
2019-03-27T15:11:23.272Z,2.17
2019-03-27T15:13:52.521Z,2.15
2019-03-27T15:16:21.725Z,2.12
2019-03-27T15:18:53.995Z,2.40
2019-03-27T15:21:23.203Z,1.90
2019-03-27T15:23:52.461Z,2.10
2019-03-27T15:26:21.699Z,2.10
2019-03-27T15:28:51.249Z,1.98
2019-03-27T15:31:21.098Z,1.98
2019-03-27T15:33:50.373Z,2.00
2019-03-27T15:36:19.559Z,2.10
2019-03-27T15:38:48.791Z,1.92
2019-03-27T15:41:18.229Z,2.00
2019-03-27T15:43:47.411Z,2.58
2019-03-27T15:46:16.715Z,2.55
2019-03-27T15:48:45.926Z,2.90
2019-03-27T15:51:15.111Z,2.77
2019-03-27T15:53:47.209Z,2.50
2019-03-27T15:56:15.404Z,2.42
2019-03-27T15:58:44.646Z,2.52
2019-03-27T16:01:13.849Z,2.62
2019-03-27T16:03:43.123Z,2.65
2019-03-27T16:06:12.351Z,2.47
2019-03-27T16:08:41.627Z,4.20
2019-03-27T16:11:10.862Z,2.70
2019-03-27T16:13:40.278Z,3.42
2019-03-27T16:16:09.528Z,2.98
2019-03-27T16:18:38.799Z,3.72
2019-03-27T16:21:08.038Z,3.37
2019-03-27T16:23:37.240Z,3.10
2019-03-27T16:26:06.417Z,2.85
2019-03-27T16:28:35.627Z,2.98
2019-03-27T16:31:04.909Z,3.50
2019-03-27T16:33:34.140Z,3.92
2019-03-27T16:36:03.319Z,4.53
2019-03-27T16:38:32.501Z,4.90
2019-03-27T16:41:01.732Z,4.70
2019-03-27T16:43:30.925Z,4.40
2019-03-27T16:46:00.136Z,4.70
2019-03-27T16:48:29.444Z,4.92
2019-03-27T16:50:58.627Z,4.80
2019-03-27T16:53:27.813Z,6.05
2019-03-27T16:55:57.032Z,14.20
2019-03-27T16:58:26.852Z,14.25
2019-03-27T17:00:56.127Z,6.62
2019-03-27T17:03:25.294Z,7.55
2019-03-27T17:05:54.674Z,8.43
2019-03-27T17:08:23.804Z,6.55
2019-03-27T17:10:53.004Z,7.35
2019-03-27T17:13:22.184Z,7.53
2019-03-27T17:15:51.420Z,7.45
2019-03-27T17:18:20.779Z,10.23
2019-03-27T17:20:49.979Z,10.78
2019-03-27T17:23:19.204Z,9.45
2019-03-27T17:25:48.547Z,10.35
2019-03-27T17:28:17.747Z,10.13
2019-03-27T17:30:47.113Z,7.33
2019-03-27T17:33:16.369Z,7.97
2019-03-27T17:35:45.712Z,9.85
2019-03-27T17:38:15.011Z,11.88
2019-03-27T17:40:44.298Z,19.45
2019-03-27T17:43:13.597Z,12.98
2019-03-27T17:45:42.850Z,18.37
2019-03-27T17:48:12.016Z,19.70
2019-03-27T17:50:41.208Z,13.25
2019-03-27T17:53:10.410Z,11.25
2019-03-27T17:55:39.625Z,12.18
2019-03-27T17:58:08.887Z,11.60
2019-03-27T18:00:47.164Z,12.15
2019-03-27T18:03:16.404Z,11.88
2019-03-27T18:05:45.674Z,11.15
2019-03-27T18:08:15.092Z,11.22
2019-03-27T18:10:44.311Z,13.25
2019-03-27T18:13:13.623Z,15.35
2019-03-27T18:15:42.803Z,14.50
2019-03-27T18:18:12.057Z,15.45
2019-03-27T18:20:41.392Z,13.78
2019-03-27T18:23:10.579Z,13.22
2019-03-27T18:25:39.757Z,14.98
2019-03-27T18:28:09.065Z,12.85
2019-03-27T18:30:39.412Z,13.60
2019-03-27T18:33:08.698Z,13.70
2019-03-27T18:35:37.979Z,15.15
2019-03-27T18:38:07.464Z,20.55
2019-03-27T18:40:36.646Z,22.02
2019-03-27T18:43:06.462Z,25.75
2019-03-27T18:45:35.670Z,26.50
2019-03-27T18:48:04.989Z,32.08
2019-03-27T18:50:34.880Z,34.58
2019-03-27T18:53:04.089Z,30.48
2019-03-27T18:55:33.368Z,26.77
2019-03-27T18:58:02.684Z,23.42
2019-03-27T19:00:32.224Z,21.25
2019-03-27T19:03:01.581Z,18.45
2019-03-27T19:05:30.763Z,19.62
2019-03-27T19:08:00.226Z,29.42
2019-03-27T19:10:29.417Z,21.00
2019-03-27T19:12:58.719Z,17.82
2019-03-27T19:15:28.029Z,18.85
2019-03-27T19:17:57.206Z,18.70
2019-03-27T19:20:26.521Z,21.75
2019-03-27T19:22:55.705Z,19.87
2019-03-27T19:25:25.005Z,19.10
2019-03-27T19:28:13.766Z,20.08
2019-03-27T19:30:42.996Z,22.95
2019-03-27T19:33:12.189Z,20.02
2019-03-27T19:35:41.510Z,20.17
2019-03-27T19:38:11.018Z,20.25
2019-03-27T19:40:40.309Z,21.75
2019-03-27T19:43:09.633Z,23.57
2019-03-27T19:45:39.029Z,24.27
2019-03-27T19:48:08.209Z,25.27
2019-03-27T19:50:37.462Z,24.67
2019-03-27T19:53:06.726Z,22.58
2019-03-27T19:55:35.918Z,24.87
2019-03-27T19:58:05.182Z,22.77
2019-03-27T20:00:34.482Z,19.82
2019-03-27T20:03:03.775Z,25.72
2019-03-27T20:05:33.108Z,23.62
2019-03-27T20:08:02.396Z,28.10
2019-03-27T20:10:31.602Z,29.32
2019-03-27T20:13:00.954Z,30.57
2019-03-27T20:15:30.187Z,33.15
2019-03-27T20:17:59.367Z,23.67
2019-03-27T20:20:28.547Z,24.77
2019-03-27T20:22:57.780Z,20.45
2019-03-27T20:25:26.965Z,18.00
2019-03-27T20:27:56.178Z,19.52
2019-03-27T20:30:26.931Z,19.98
2019-03-27T20:32:56.489Z,18.85
2019-03-27T20:35:25.668Z,17.35
2019-03-27T20:37:55.092Z,16.52
2019-03-27T20:40:27.546Z,17.40
2019-03-27T20:42:55.418Z,16.30
2019-03-27T20:45:24.711Z,17.90
2019-03-27T20:47:54.552Z,17.10
2019-03-27T20:50:26.811Z,17.10
2019-03-27T20:52:55.084Z,17.55
2019-03-27T20:55:30.003Z,18.07
2019-03-27T20:57:55.449Z,19.50
2019-03-27T21:00:24.714Z,19.67
2019-03-27T21:02:53.995Z,16.73
2019-03-27T21:05:23.188Z,18.37
2019-03-27T21:07:52.479Z,19.45
2019-03-27T21:10:21.665Z,20.82
2019-03-27T21:12:50.869Z,15.68
2019-03-27T21:15:20.152Z,18.20
2019-03-27T21:17:49.452Z,18.67
2019-03-27T21:20:18.704Z,18.65
2019-03-27T21:22:47.889Z,17.00
2019-03-27T21:25:17.101Z,17.27
2019-03-27T21:27:46.363Z,17.75
2019-03-27T21:30:16.439Z,16.85
2019-03-27T21:32:45.683Z,16.00
2019-03-27T21:35:14.982Z,16.07
2019-03-27T21:37:44.241Z,16.07
2019-03-27T21:40:13.421Z,15.93
2019-03-27T21:42:42.608Z,14.95
2019-03-27T21:45:11.914Z,13.35
2019-03-27T21:47:41.232Z,13.75
2019-03-27T21:50:10.412Z,13.58
2019-03-27T21:52:39.805Z,13.75
2019-03-27T21:55:22.120Z,13.62
2019-03-27T21:57:40.204Z,13.43
2019-03-27T22:00:09.409Z,14.38
2019-03-27T22:02:39.802Z,13.88
2019-03-27T22:05:09.097Z,14.00
2019-03-27T22:07:38.315Z,14.85
2019-03-27T22:10:07.887Z,14.93
2019-03-27T22:12:38.463Z,14.38
2019-03-27T22:15:08.565Z,13.58
2019-03-27T22:17:37.858Z,12.93
2019-03-27T22:20:07.437Z,14.05
2019-03-27T22:22:36.835Z,14.03
2019-03-27T22:25:07.823Z,13.53
2019-03-27T22:27:37.017Z,13.78
2019-03-27T22:30:07.946Z,13.93
2019-03-27T22:32:37.185Z,14.25
2019-03-27T22:35:07.436Z,14.68
2019-03-27T22:37:36.791Z,16.75
2019-03-27T22:40:07.361Z,14.63
2019-03-27T22:42:36.886Z,14.98
2019-03-27T22:45:06.648Z,13.35
2019-03-27T22:47:35.864Z,12.70
2019-03-27T22:50:08.228Z,12.60
2019-03-27T22:52:38.080Z,13.08
2019-03-27T22:55:08.238Z,13.00
2019-03-27T22:57:37.491Z,13.13
2019-03-27T23:00:12.890Z,12.88
2019-03-27T23:02:42.230Z,13.25
2019-03-27T23:05:11.722Z,13.40
2019-03-27T23:07:41.023Z,13.88
2019-03-27T23:10:10.346Z,14.20
2019-03-27T23:12:39.600Z,14.25
2019-03-27T23:15:10.845Z,14.28
2019-03-27T23:17:40.132Z,14.13
2019-03-27T23:20:10.220Z,14.40
2019-03-27T23:22:39.403Z,14.03
2019-03-27T23:25:09.794Z,15.30
2019-03-27T23:27:38.979Z,14.75
2019-03-27T23:30:08.477Z,15.88
2019-03-27T23:32:37.788Z,16.45
2019-03-27T23:35:07.782Z,16.30
2019-03-27T23:37:36.983Z,16.95
2019-03-27T23:40:06.718Z,16.93
2019-03-27T23:42:35.907Z,17.10
2019-03-27T23:45:08.430Z,15.88
2019-03-27T23:47:37.702Z,16.75
2019-03-27T23:50:09.839Z,16.30
2019-03-27T23:52:39.048Z,15.90
2019-03-27T23:55:08.254Z,16.65
2019-03-27T23:57:37.508Z,16.60
